Terminal Aerodrome Forecast
Issued by NWS

Home | Current Version | Previous Version | Text Only | Print | Product List | Glossary On
Versions: 1 2 3 4 5 6 7 8 9 10 11 12 13 14 15 16 17 18 19 20 21 22 23 24 25 26 27
000
FTUS44 KEWX 041148
TAFSSF
TAF
KSSF 041148Z 0412/0512 VRB03KT 1SM BR BKN010 OVC025
      TEMPO 0412/0416 SCT010 OVC025
     FM042100 12005KT P6SM OVC025
     FM050200 02015G25KT P6SM OVC015 PROB30 0502/0506 4SM SHRA
     FM050800 01020G30KT 4SM SHRA OVC015=

USA.gov is the U.S. government's official web portal to all federal, state and local government web resources and services.